createdAt,value
2023-07-31T00:00:22.005Z,11.98
2023-07-31T00:02:48.799Z,16.23
2023-07-31T00:05:15.737Z,8.52
2023-07-31T00:07:43.780Z,11.38
2023-07-31T00:10:11.150Z,12.35
2023-07-31T00:12:39.337Z,13.30
2023-07-31T00:15:07.277Z,14.75
2023-07-31T00:17:34.241Z,11.15
2023-07-31T00:20:01.132Z,13.95
2023-07-31T00:22:27.786Z,10.88
2023-07-31T00:24:56.681Z,12.75
2023-07-31T00:27:23.376Z,14.95
2023-07-31T00:29:51.082Z,10.48
2023-07-31T00:32:17.760Z,11.30
2023-07-31T00:34:44.459Z,10.43
2023-07-31T00:37:11.222Z,11.63
2023-07-31T00:39:38.272Z,10.80
2023-07-31T00:42:07.549Z,13.63
2023-07-31T00:44:34.588Z,12.57
2023-07-31T00:47:01.336Z,11.48
2023-07-31T00:49:28.370Z,13.60
2023-07-31T00:51:56.377Z,11.00
2023-07-31T00:54:23.115Z,14.02
2023-07-31T00:56:53.902Z,11.35
2023-07-31T00:59:23.684Z,11.85
2023-07-31T01:01:50.788Z,12.45
2023-07-31T01:04:19.067Z,15.02
2023-07-31T01:06:49.907Z,10.90
2023-07-31T01:09:25.690Z,17.80
2023-07-31T01:11:57.330Z,14.88
2023-07-31T01:14:25.354Z,13.65
2023-07-31T01:16:52.001Z,10.00
2023-07-31T01:19:22.588Z,12.43
2023-07-31T01:22:06.192Z,8.38
2023-07-31T01:24:40.916Z,10.27
2023-07-31T01:27:13.390Z,11.43
2023-07-31T01:29:46.737Z,10.82
2023-07-31T01:32:14.526Z,9.77
2023-07-31T01:34:43.262Z,9.18
2023-07-31T01:37:09.945Z,13.50
2023-07-31T01:39:36.588Z,12.25
2023-07-31T01:42:04.476Z,14.45
2023-07-31T01:44:32.590Z,13.70
2023-07-31T01:46:59.376Z,14.55
2023-07-31T01:49:26.055Z,12.70
2023-07-31T01:51:52.927Z,14.95
2023-07-31T01:54:19.511Z,12.93
2023-07-31T01:56:46.194Z,11.73
2023-07-31T01:59:12.895Z,11.82
2023-07-31T02:01:41.239Z,17.80
2023-07-31T02:04:07.899Z,13.63
2023-07-31T02:06:34.534Z,15.15
2023-07-31T02:09:01.840Z,13.88
2023-07-31T02:11:28.556Z,11.15
2023-07-31T02:13:55.260Z,11.02
2023-07-31T02:16:22.100Z,17.98
2023-07-31T02:18:50.202Z,12.57
2023-07-31T02:21:16.997Z,13.48
2023-07-31T02:23:43.793Z,11.60
2023-07-31T02:26:10.434Z,14.02
2023-07-31T02:28:37.161Z,17.00
2023-07-31T02:31:03.866Z,14.52
2023-07-31T02:33:30.544Z,14.90
2023-07-31T02:35:58.634Z,12.07
2023-07-31T02:38:25.383Z,11.57
2023-07-31T02:40:52.057Z,11.80
2023-07-31T02:43:18.745Z,16.20
2023-07-31T02:45:45.569Z,11.55
2023-07-31T02:48:12.262Z,13.70
2023-07-31T02:50:39.005Z,12.73
2023-07-31T02:53:07.121Z,14.52
2023-07-31T02:55:33.928Z,10.48
2023-07-31T02:58:00.681Z,12.57
2023-07-31T03:00:27.453Z,10.75
2023-07-31T03:02:54.298Z,16.02
2023-07-31T03:05:21.143Z,13.82
2023-07-31T03:07:47.926Z,13.20
2023-07-31T03:10:16.340Z,9.85
2023-07-31T03:12:42.995Z,10.88
2023-07-31T03:15:10.465Z,10.30
2023-07-31T03:17:37.257Z,15.70
2023-07-31T03:20:05.224Z,11.52
2023-07-31T03:22:31.917Z,10.85
2023-07-31T03:24:58.663Z,12.00
2023-07-31T03:27:26.883Z,8.68
2023-07-31T03:29:53.839Z,15.23
2023-07-31T03:32:20.757Z,9.10
2023-07-31T03:34:47.612Z,9.68
2023-07-31T03:37:14.391Z,10.95
2023-07-31T03:39:41.042Z,18.10
2023-07-31T03:42:07.867Z,15.57
2023-07-31T03:44:36.013Z,14.25
2023-07-31T03:47:02.899Z,11.90
2023-07-31T03:49:29.601Z,10.70
2023-07-31T03:51:56.294Z,10.63
2023-07-31T03:54:23.046Z,12.07
2023-07-31T03:56:49.908Z,12.35
2023-07-31T03:59:16.674Z,11.15
2023-07-31T04:01:44.718Z,10.27
2023-07-31T04:04:11.340Z,7.15
2023-07-31T04:06:38.286Z,10.07
2023-07-31T04:09:05.258Z,7.55
2023-07-31T04:11:31.963Z,9.27
2023-07-31T04:13:58.655Z,10.60
2023-07-31T04:16:25.320Z,14.73
2023-07-31T04:18:53.345Z,8.43
2023-07-31T04:21:20.028Z,9.32
2023-07-31T04:23:46.635Z,10.07
2023-07-31T04:26:13.295Z,12.23
2023-07-31T04:28:39.960Z,7.00
2023-07-31T04:31:06.783Z,11.07
2023-07-31T04:33:33.552Z,14.00
2023-07-31T04:36:01.871Z,15.07
2023-07-31T04:38:28.609Z,9.60
2023-07-31T04:40:55.358Z,9.93
2023-07-31T04:43:22.148Z,13.98
2023-07-31T04:45:49.255Z,8.82
2023-07-31T04:48:16.329Z,9.10
2023-07-31T04:50:43.082Z,11.52
2023-07-31T04:53:11.195Z,10.48
2023-07-31T04:55:37.852Z,7.95
2023-07-31T04:58:04.580Z,10.82
2023-07-31T05:00:31.279Z,10.93
2023-07-31T05:02:58.142Z,7.22
2023-07-31T05:05:24.927Z,7.15
2023-07-31T05:07:51.512Z,9.52
2023-07-31T05:10:19.671Z,10.38
2023-07-31T05:12:46.568Z,10.80
2023-07-31T05:15:13.286Z,11.48
2023-07-31T05:17:40.038Z,10.55
2023-07-31T05:20:08.195Z,8.60
2023-07-31T05:22:35.038Z,7.03
2023-07-31T05:25:01.725Z,7.43
2023-07-31T05:27:29.809Z,8.05
2023-07-31T05:29:56.603Z,8.57
2023-07-31T05:32:23.376Z,8.98
2023-07-31T05:34:52.136Z,11.23
2023-07-31T05:37:18.941Z,8.77
2023-07-31T05:39:45.855Z,9.38
2023-07-31T05:42:12.663Z,10.13
2023-07-31T05:44:40.821Z,6.80
2023-07-31T05:47:07.445Z,7.75
2023-07-31T05:49:34.375Z,9.93
2023-07-31T05:52:01.048Z,7.63
2023-07-31T05:54:27.830Z,8.23
2023-07-31T05:56:54.564Z,8.40
2023-07-31T05:59:21.176Z,7.75
2023-07-31T06:01:49.318Z,9.00
2023-07-31T06:04:16.157Z,9.25
2023-07-31T06:06:42.867Z,6.60
2023-07-31T06:09:09.598Z,8.00
2023-07-31T06:11:36.516Z,8.32
2023-07-31T06:14:04.616Z,5.90
2023-07-31T06:16:31.276Z,9.13
2023-07-31T06:18:59.382Z,9.13
2023-07-31T06:21:26.193Z,8.30
2023-07-31T06:23:52.810Z,9.88
2023-07-31T06:26:19.486Z,8.98
2023-07-31T06:28:46.258Z,10.93
2023-07-31T06:31:13.156Z,6.05
2023-07-31T06:33:39.880Z,6.70
2023-07-31T06:36:07.926Z,8.32
2023-07-31T06:38:34.604Z,10.20
2023-07-31T06:41:01.370Z,8.68
2023-07-31T06:43:29.530Z,6.93
2023-07-31T06:45:56.795Z,5.18
2023-07-31T06:48:23.730Z,10.05
2023-07-31T06:50:50.432Z,10.00
2023-07-31T06:53:18.679Z,8.27
2023-07-31T06:55:45.401Z,7.82
2023-07-31T06:58:12.154Z,8.45
2023-07-31T07:00:38.830Z,12.80
2023-07-31T07:03:05.740Z,13.52
2023-07-31T07:05:32.545Z,7.60
2023-07-31T07:07:59.235Z,7.90
2023-07-31T07:10:27.849Z,5.20
2023-07-31T07:12:55.898Z,6.03
2023-07-31T07:15:22.608Z,5.90
2023-07-31T07:17:49.359Z,10.30
2023-07-31T07:20:16.338Z,6.28
2023-07-31T07:22:43.062Z,6.35
2023-07-31T07:25:09.938Z,6.40
2023-07-31T07:27:38.014Z,9.75
2023-07-31T07:30:06.347Z,10.73
2023-07-31T07:32:33.027Z,5.45
2023-07-31T07:34:59.947Z,5.30
2023-07-31T07:37:26.796Z,6.50
2023-07-31T07:39:53.485Z,6.43
2023-07-31T07:42:20.329Z,5.35
2023-07-31T07:44:48.311Z,4.13
2023-07-31T07:47:15.149Z,4.32
2023-07-31T07:49:41.913Z,6.93
2023-07-31T07:52:08.783Z,3.13
2023-07-31T07:54:35.500Z,9.77
2023-07-31T07:57:02.349Z,7.53
2023-07-31T07:59:29.093Z,5.07
2023-07-31T08:01:57.078Z,6.32
2023-07-31T08:04:23.836Z,8.13
2023-07-31T08:06:50.469Z,5.60
2023-07-31T08:09:17.554Z,8.05
2023-07-31T08:11:44.239Z,6.75
2023-07-31T08:14:10.912Z,6.32
2023-07-31T08:16:38.020Z,11.07
2023-07-31T08:19:06.539Z,5.70
2023-07-31T08:21:33.604Z,7.88
2023-07-31T08:24:00.491Z,6.07
2023-07-31T08:26:27.192Z,6.63
2023-07-31T08:28:53.987Z,5.65
2023-07-31T08:31:20.853Z,7.00
2023-07-31T08:33:47.993Z,6.53
2023-07-31T08:36:16.102Z,7.97
2023-07-31T08:38:42.781Z,5.20
2023-07-31T08:41:09.525Z,5.80
2023-07-31T08:43:37.079Z,7.55
2023-07-31T08:46:04.392Z,5.80
2023-07-31T08:48:32.838Z,5.55
2023-07-31T08:50:59.475Z,6.80
2023-07-31T08:53:27.695Z,6.63
2023-07-31T08:55:54.602Z,6.40
2023-07-31T08:58:21.997Z,6.20
2023-07-31T09:00:50.385Z,5.97
2023-07-31T09:03:19.449Z,6.93
2023-07-31T09:05:47.736Z,9.05
2023-07-31T09:08:17.672Z,6.22
2023-07-31T09:10:47.188Z,6.38
2023-07-31T09:13:14.945Z,5.68
2023-07-31T09:15:45.063Z,7.60
2023-07-31T09:18:12.489Z,9.48
2023-07-31T09:20:39.603Z,11.07
2023-07-31T09:23:07.854Z,6.20
2023-07-31T09:25:34.716Z,10.73
2023-07-31T09:28:04.577Z,9.00
2023-07-31T09:30:31.757Z,5.50
2023-07-31T09:33:02.723Z,10.80
2023-07-31T09:35:31.394Z,6.30
2023-07-31T09:37:59.600Z,6.75
2023-07-31T09:40:27.700Z,7.47
2023-07-31T09:42:55.268Z,5.72
2023-07-31T09:45:28.349Z,5.95
2023-07-31T09:47:59.275Z,4.93
2023-07-31T09:50:26.389Z,8.65
2023-07-31T09:52:53.651Z,7.60
2023-07-31T09:55:20.941Z,6.30
2023-07-31T09:57:49.403Z,5.90
2023-07-31T10:00:17.792Z,7.00
2023-07-31T10:02:48.140Z,10.07
2023-07-31T10:05:16.130Z,13.20
2023-07-31T10:07:46.660Z,4.72
2023-07-31T10:10:16.170Z,5.32
2023-07-31T10:12:44.824Z,4.07
2023-07-31T10:15:12.564Z,4.05
2023-07-31T10:17:39.541Z,7.55
2023-07-31T10:20:09.049Z,4.53
2023-07-31T10:22:35.897Z,3.58
2023-07-31T10:25:03.100Z,3.50
2023-07-31T10:27:30.114Z,5.32
2023-07-31T10:29:59.442Z,4.47
2023-07-31T10:32:27.715Z,3.22
2023-07-31T10:34:55.762Z,5.88
2023-07-31T10:37:26.157Z,3.08
2023-07-31T10:40:00.529Z,3.28
2023-07-31T10:42:35.184Z,3.67
2023-07-31T10:45:04.293Z,4.38
2023-07-31T10:47:31.311Z,3.83
2023-07-31T10:50:21.537Z,3.92
2023-07-31T10:52:51.447Z,4.57
2023-07-31T10:55:32.310Z,6.03
2023-07-31T10:58:06.123Z,4.60
2023-07-31T11:00:32.962Z,3.75
2023-07-31T11:03:01.876Z,2.88
2023-07-31T11:05:49.903Z,6.50
2023-07-31T11:08:20.013Z,5.57
2023-07-31T11:10:48.282Z,4.35
2023-07-31T11:13:15.416Z,2.95
2023-07-31T11:15:42.114Z,3.10
2023-07-31T11:18:09.144Z,3.33
2023-07-31T11:20:37.883Z,3.80
2023-07-31T11:23:08.000Z,5.05
2023-07-31T11:25:36.281Z,4.85
2023-07-31T11:28:05.086Z,2.70
2023-07-31T11:30:31.950Z,3.80
2023-07-31T11:32:59.133Z,4.20
2023-07-31T11:35:26.000Z,5.63
2023-07-31T11:37:52.797Z,6.15
2023-07-31T11:40:22.812Z,4.93
2023-07-31T11:42:52.315Z,4.57
2023-07-31T11:45:19.122Z,4.85
2023-07-31T11:47:46.703Z,5.65
2023-07-31T11:50:13.433Z,4.35
2023-07-31T11:52:45.610Z,3.83
2023-07-31T11:55:13.300Z,4.18
2023-07-31T11:57:42.260Z,5.75
2023-07-31T12:00:12.393Z,4.55
2023-07-31T12:02:39.475Z,7.05
2023-07-31T12:05:06.762Z,5.22
2023-07-31T12:07:45.085Z,2.67
2023-07-31T12:10:11.885Z,6.15
2023-07-31T12:12:38.545Z,5.95
2023-07-31T12:15:16.157Z,5.00
2023-07-31T12:17:42.929Z,7.20
2023-07-31T12:20:10.844Z,4.43
2023-07-31T12:22:37.692Z,4.50
2023-07-31T12:25:05.047Z,6.15
2023-07-31T12:27:34.371Z,5.15
2023-07-31T12:30:01.192Z,6.43
2023-07-31T12:32:31.496Z,3.85
2023-07-31T12:35:00.620Z,6.97
2023-07-31T12:37:27.440Z,6.55
2023-07-31T12:39:54.162Z,5.85
2023-07-31T12:42:20.934Z,5.50
2023-07-31T12:44:47.626Z,4.53
2023-07-31T12:47:14.231Z,6.88
2023-07-31T12:49:42.246Z,4.93
2023-07-31T12:52:08.986Z,6.20
2023-07-31T12:54:35.716Z,8.15
2023-07-31T12:57:02.586Z,7.20
2023-07-31T12:59:29.299Z,7.45
2023-07-31T13:01:56.146Z,8.23
2023-07-31T13:04:22.856Z,8.18
2023-07-31T13:06:50.888Z,7.28
2023-07-31T13:09:17.714Z,5.28
2023-07-31T13:11:44.725Z,7.70
2023-07-31T13:14:11.424Z,7.20
2023-07-31T13:16:38.365Z,8.40
2023-07-31T13:19:05.305Z,7.18
2023-07-31T13:21:31.981Z,7.03
2023-07-31T13:24:00.062Z,6.47
2023-07-31T13:26:26.807Z,6.53
2023-07-31T13:28:53.425Z,6.43
2023-07-31T13:31:20.206Z,6.40
2023-07-31T13:33:47.041Z,9.02
2023-07-31T13:36:13.772Z,6.07
2023-07-31T13:38:40.485Z,7.18
2023-07-31T13:41:08.519Z,8.55
2023-07-31T13:43:35.169Z,5.20
2023-07-31T13:46:01.937Z,7.63
2023-07-31T13:48:28.701Z,8.18
2023-07-31T13:50:55.413Z,5.82
2023-07-31T13:53:22.148Z,6.25
2023-07-31T13:55:48.892Z,7.82
2023-07-31T13:58:16.885Z,5.00
2023-07-31T14:00:43.609Z,7.30
2023-07-31T14:03:10.550Z,6.10
2023-07-31T14:05:37.600Z,6.07
2023-07-31T14:08:04.731Z,7.20
2023-07-31T14:10:31.441Z,6.50
2023-07-31T14:12:58.185Z,5.93
2023-07-31T14:15:26.295Z,7.50
2023-07-31T14:17:53.293Z,7.47
2023-07-31T14:20:20.231Z,7.28
2023-07-31T14:22:47.107Z,11.85
2023-07-31T14:25:13.821Z,9.70
2023-07-31T14:27:40.612Z,7.18
2023-07-31T14:30:08.777Z,7.53
2023-07-31T14:32:36.802Z,8.20
2023-07-31T14:35:03.904Z,6.35
2023-07-31T14:37:37.931Z,9.43
2023-07-31T14:40:05.858Z,7.63
2023-07-31T14:42:32.540Z,10.50
2023-07-31T14:44:59.345Z,9.40
2023-07-31T14:47:26.185Z,6.90
2023-07-31T14:49:54.377Z,9.60
2023-07-31T14:52:21.193Z,7.90
2023-07-31T14:54:47.842Z,10.13
2023-07-31T14:57:14.668Z,7.60
2023-07-31T14:59:41.436Z,10.32
2023-07-31T15:02:09.850Z,8.75
2023-07-31T15:04:36.993Z,10.95
2023-07-31T15:07:05.813Z,8.68
2023-07-31T15:09:32.570Z,8.60
2023-07-31T15:11:59.685Z,11.48
2023-07-31T15:14:26.625Z,8.65
2023-07-31T15:16:53.314Z,9.80
2023-07-31T15:19:20.038Z,12.35
2023-07-31T15:21:46.746Z,9.52
2023-07-31T15:24:14.850Z,10.40
2023-07-31T15:26:41.801Z,12.27
2023-07-31T15:29:09.538Z,7.60
2023-07-31T15:31:36.316Z,8.57
2023-07-31T15:34:03.178Z,11.60
2023-07-31T15:36:29.989Z,7.50
2023-07-31T15:38:56.760Z,7.00
2023-07-31T15:41:25.264Z,10.18
2023-07-31T15:43:52.033Z,5.07
2023-07-31T15:46:19.237Z,8.32
2023-07-31T15:48:46.111Z,6.72
2023-07-31T15:51:12.987Z,6.70
2023-07-31T15:53:40.716Z,6.35
2023-07-31T15:56:07.808Z,7.90
2023-07-31T15:58:35.922Z,6.68
2023-07-31T16:01:02.950Z,7.00
2023-07-31T16:03:29.757Z,9.20
2023-07-31T16:05:56.610Z,9.13
2023-07-31T16:08:23.304Z,6.22
2023-07-31T16:10:50.062Z,4.30
2023-07-31T16:13:16.754Z,6.53
2023-07-31T16:15:44.950Z,4.50
2023-07-31T16:18:11.877Z,7.50
2023-07-31T16:20:38.579Z,3.70
2023-07-31T16:23:05.641Z,3.33
2023-07-31T16:25:32.319Z,2.75
2023-07-31T16:27:59.147Z,4.28
2023-07-31T16:30:26.035Z,4.40
2023-07-31T16:32:54.546Z,4.57
2023-07-31T16:35:21.309Z,5.80
2023-07-31T16:37:48.030Z,3.65
2023-07-31T16:40:15.057Z,3.13
2023-07-31T16:42:41.884Z,1.90
2023-07-31T16:45:08.921Z,5.97
2023-07-31T16:47:35.696Z,5.45
2023-07-31T16:50:04.383Z,4.13
2023-07-31T16:52:31.151Z,3.28
2023-07-31T16:54:58.232Z,3.35
2023-07-31T16:57:24.966Z,3.20
2023-07-31T16:59:52.008Z,4.68
2023-07-31T17:02:18.985Z,2.40
2023-07-31T17:04:45.874Z,2.78
2023-07-31T17:07:13.950Z,3.50
2023-07-31T17:09:40.699Z,3.03
2023-07-31T17:12:08.260Z,2.70
2023-07-31T17:14:34.896Z,4.82
2023-07-31T17:17:01.530Z,2.92
2023-07-31T17:19:28.241Z,2.97
2023-07-31T17:21:54.993Z,2.55
2023-07-31T17:24:23.203Z,3.28
2023-07-31T17:26:50.075Z,3.80
2023-07-31T17:29:17.142Z,3.35
2023-07-31T17:31:44.068Z,2.40
2023-07-31T17:34:11.138Z,2.78
2023-07-31T17:36:37.886Z,3.25
2023-07-31T17:39:05.562Z,2.33
2023-07-31T17:41:35.244Z,3.08
2023-07-31T17:44:01.993Z,2.90
2023-07-31T17:46:28.740Z,2.75
2023-07-31T17:48:58.041Z,2.80
2023-07-31T17:51:24.899Z,3.75
2023-07-31T17:53:51.588Z,3.13
2023-07-31T17:56:18.350Z,1.70
2023-07-31T17:58:46.388Z,3.67
2023-07-31T18:01:13.204Z,4.13
2023-07-31T18:03:40.164Z,2.95
2023-07-31T18:06:06.862Z,3.30
2023-07-31T18:08:33.438Z,1.73
2023-07-31T18:11:02.904Z,1.92
2023-07-31T18:13:29.570Z,2.33
2023-07-31T18:15:57.653Z,3.47
2023-07-31T18:18:24.281Z,2.40
2023-07-31T18:20:50.926Z,3.95
2023-07-31T18:23:17.596Z,2.65
2023-07-31T18:25:44.207Z,2.40
2023-07-31T18:28:10.900Z,3.25
2023-07-31T18:30:37.669Z,4.38
2023-07-31T18:33:05.799Z,2.83
2023-07-31T18:35:32.503Z,2.28
2023-07-31T18:37:59.204Z,2.13
2023-07-31T18:40:25.897Z,4.97
2023-07-31T18:42:52.679Z,2.20
2023-07-31T18:45:19.425Z,3.10
2023-07-31T18:47:46.158Z,6.00
2023-07-31T18:50:14.280Z,1.10
2023-07-31T18:52:41.076Z,1.63
2023-07-31T18:55:08.537Z,1.63
2023-07-31T18:57:35.276Z,3.22
2023-07-31T19:00:02.000Z,4.03
2023-07-31T19:02:28.817Z,1.63
2023-07-31T19:04:55.601Z,1.90
2023-07-31T19:07:23.871Z,2.35
2023-07-31T19:10:00.240Z,3.03
2023-07-31T19:12:31.555Z,1.23
2023-07-31T19:14:58.333Z,1.70
2023-07-31T19:17:25.151Z,3.53
2023-07-31T19:19:51.868Z,4.50
2023-07-31T19:22:18.573Z,1.58
2023-07-31T19:24:46.647Z,2.55
2023-07-31T19:27:13.408Z,2.20
2023-07-31T19:29:39.998Z,1.17
2023-07-31T19:32:07.415Z,3.25
2023-07-31T19:34:34.195Z,2.58
2023-07-31T19:37:00.901Z,2.00
2023-07-31T19:39:27.557Z,2.20
2023-07-31T19:41:55.610Z,1.42
2023-07-31T19:44:22.318Z,2.45
2023-07-31T19:46:49.103Z,2.43
2023-07-31T19:49:15.826Z,1.42
2023-07-31T19:51:42.588Z,2.08
2023-07-31T19:54:09.212Z,1.30
2023-07-31T19:56:35.861Z,2.65
2023-07-31T19:59:03.903Z,4.30
2023-07-31T20:01:30.576Z,1.77
2023-07-31T20:03:57.281Z,2.20
2023-07-31T20:06:24.129Z,2.55
2023-07-31T20:08:50.904Z,3.03
2023-07-31T20:11:17.507Z,1.92
2023-07-31T20:13:44.201Z,4.25
2023-07-31T20:16:12.308Z,2.40
2023-07-31T20:18:39.078Z,3.28
2023-07-31T20:21:05.745Z,2.42
2023-07-31T20:23:42.549Z,2.65
2023-07-31T20:26:10.482Z,2.55
2023-07-31T20:28:37.285Z,1.75
2023-07-31T20:31:04.156Z,1.40
2023-07-31T20:33:32.304Z,3.70
2023-07-31T20:35:59.196Z,3.88
2023-07-31T20:38:25.945Z,2.38
2023-07-31T20:40:52.663Z,1.85
2023-07-31T20:43:19.328Z,3.25
2023-07-31T20:45:46.138Z,1.77
2023-07-31T20:48:12.820Z,2.25
2023-07-31T20:50:41.300Z,3.13
2023-07-31T20:53:08.154Z,2.53
2023-07-31T20:55:34.866Z,3.35
2023-07-31T20:58:01.531Z,3.72
2023-07-31T21:00:28.309Z,1.63
2023-07-31T21:02:55.145Z,3.60
2023-07-31T21:05:21.958Z,1.77
2023-07-31T21:07:50.108Z,3.65
2023-07-31T21:10:16.991Z,4.90
2023-07-31T21:12:44.017Z,2.33
2023-07-31T21:15:11.816Z,3.85
2023-07-31T21:17:38.608Z,2.55
2023-07-31T21:20:06.626Z,1.52
2023-07-31T21:22:33.538Z,3.35
2023-07-31T21:25:01.708Z,1.85
2023-07-31T21:27:28.396Z,2.05
2023-07-31T21:29:55.258Z,3.85
2023-07-31T21:32:22.041Z,2.80
2023-07-31T21:34:49.003Z,4.30
2023-07-31T21:37:15.729Z,1.30
2023-07-31T21:39:42.483Z,2.15
2023-07-31T21:42:10.585Z,1.88
2023-07-31T21:44:37.316Z,5.63
2023-07-31T21:47:04.767Z,2.30
2023-07-31T21:49:31.463Z,2.95
2023-07-31T21:51:58.116Z,5.55
2023-07-31T21:54:24.851Z,3.25
2023-07-31T21:56:51.570Z,4.13
2023-07-31T21:59:19.675Z,6.80
2023-07-31T22:01:46.524Z,1.25
2023-07-31T22:04:13.226Z,1.38
2023-07-31T22:06:40.225Z,2.58
2023-07-31T22:09:07.036Z,1.23
2023-07-31T22:11:33.752Z,1.80
2023-07-31T22:14:00.648Z,2.60
2023-07-31T22:16:28.747Z,0.90
2023-07-31T22:18:55.574Z,4.78
2023-07-31T22:21:22.394Z,3.83
2023-07-31T22:23:49.113Z,1.55
2023-07-31T22:26:15.776Z,2.05
2023-07-31T22:28:42.515Z,4.00
2023-07-31T22:31:09.349Z,1.23
2023-07-31T22:33:37.657Z,3.10
2023-07-31T22:36:04.779Z,1.40
2023-07-31T22:38:31.533Z,4.93
2023-07-31T22:40:58.141Z,1.52
2023-07-31T22:43:24.840Z,1.45
2023-07-31T22:45:51.660Z,5.78
2023-07-31T22:48:18.381Z,2.83
2023-07-31T22:50:47.516Z,0.70
2023-07-31T22:53:14.295Z,2.00
2023-07-31T22:55:41.027Z,2.65
2023-07-31T22:58:07.727Z,2.72
2023-07-31T23:00:34.417Z,4.32
2023-07-31T23:03:01.178Z,5.20
2023-07-31T23:05:27.880Z,2.95
2023-07-31T23:07:55.945Z,1.27
2023-07-31T23:10:22.674Z,1.63
2023-07-31T23:12:49.399Z,2.10
2023-07-31T23:15:16.224Z,3.95
2023-07-31T23:17:42.938Z,1.02
2023-07-31T23:20:10.440Z,3.63
2023-07-31T23:22:37.086Z,3.40
2023-07-31T23:25:05.691Z,3.22
2023-07-31T23:27:32.705Z,4.13
2023-07-31T23:29:59.435Z,2.85
2023-07-31T23:32:26.158Z,3.83
2023-07-31T23:34:52.818Z,1.02
2023-07-31T23:37:19.460Z,3.80
2023-07-31T23:39:46.093Z,3.47
2023-07-31T23:42:14.098Z,4.43
2023-07-31T23:44:41.074Z,2.25
2023-07-31T23:47:07.761Z,2.35
2023-07-31T23:49:34.371Z,3.33
2023-07-31T23:52:01.200Z,3.75
2023-07-31T23:54:29.300Z,3.92
2023-07-31T23:56:56.016Z,3.17
2023-07-31T23:59:24.106Z,3.10
